sensor_id;sensor_type;location;lat;lon;timestamp;P1;durP1;ratioP1;P2;durP2;ratioP2
71423;SDS011;59240;51.370;-0.486;2023-08-30T00:02:14;4.43;;;2.70;;
71423;SDS011;59240;51.370;-0.486;2023-08-30T00:07:11;3.00;;;1.75;;
71423;SDS011;59240;51.370;-0.486;2023-08-30T00:12:08;4.57;;;2.15;;
71423;SDS011;59240;51.370;-0.486;2023-08-30T00:17:04;3.63;;;2.08;;
71423;SDS011;59240;51.370;-0.486;2023-08-30T00:22:01;4.32;;;2.10;;
71423;SDS011;59240;51.370;-0.486;2023-08-30T00:27:00;4.43;;;2.10;;
71423;SDS011;59240;51.370;-0.486;2023-08-30T00:32:00;3.28;;;2.58;;
71423;SDS011;59240;51.370;-0.486;2023-08-30T00:36:57;3.58;;;2.00;;
71423;SDS011;59240;51.370;-0.486;2023-08-30T00:41:53;7.65;;;2.38;;
71423;SDS011;59240;51.370;-0.486;2023-08-30T00:46:50;3.97;;;2.55;;
71423;SDS011;59240;51.370;-0.486;2023-08-30T00:51:47;4.85;;;2.42;;
71423;SDS011;59240;51.370;-0.486;2023-08-30T00:56:44;5.43;;;2.72;;
71423;SDS011;59240;51.370;-0.486;2023-08-30T01:01:41;3.58;;;1.80;;
71423;SDS011;59240;51.370;-0.486;2023-08-30T01:06:38;5.70;;;1.90;;
71423;SDS011;59240;51.370;-0.486;2023-08-30T01:16:35;6.13;;;2.47;;
71423;SDS011;59240;51.370;-0.486;2023-08-30T01:21:48;3.80;;;2.35;;
71423;SDS011;59240;51.370;-0.486;2023-08-30T01:32:09;4.75;;;2.20;;
71423;SDS011;59240;51.370;-0.486;2023-08-30T01:37:06;4.00;;;2.30;;
71423;SDS011;59240;51.370;-0.486;2023-08-30T01:42:07;3.30;;;2.38;;
71423;SDS011;59240;51.370;-0.486;2023-08-30T01:47:05;6.32;;;2.70;;
71423;SDS011;59240;51.370;-0.486;2023-08-30T01:52:03;4.35;;;2.40;;
71423;SDS011;59240;51.370;-0.486;2023-08-30T01:57:00;5.25;;;2.38;;
71423;SDS011;59240;51.370;-0.486;2023-08-30T02:01:56;3.70;;;2.28;;
71423;SDS011;59240;51.370;-0.486;2023-08-30T02:07:57;5.45;;;2.55;;
71423;SDS011;59240;51.370;-0.486;2023-08-30T02:12:47;8.55;;;2.83;;
71423;SDS011;59240;51.370;-0.486;2023-08-30T02:17:45;10.35;;;2.75;;
71423;SDS011;59240;51.370;-0.486;2023-08-30T02:22:44;5.82;;;2.75;;
71423;SDS011;59240;51.370;-0.486;2023-08-30T02:27:41;6.45;;;2.80;;
71423;SDS011;59240;51.370;-0.486;2023-08-30T02:32:38;8.85;;;2.83;;
71423;SDS011;59240;51.370;-0.486;2023-08-30T02:37:35;7.28;;;2.58;;
71423;SDS011;59240;51.370;-0.486;2023-08-30T02:42:31;5.72;;;2.60;;
71423;SDS011;59240;51.370;-0.486;2023-08-30T02:47:29;4.47;;;2.72;;
71423;SDS011;59240;51.370;-0.486;2023-08-30T02:52:29;5.30;;;2.83;;
71423;SDS011;59240;51.370;-0.486;2023-08-30T02:57:26;6.43;;;3.08;;
71423;SDS011;59240;51.370;-0.486;2023-08-30T03:02:23;6.35;;;2.95;;
71423;SDS011;59240;51.370;-0.486;2023-08-30T03:07:19;5.30;;;2.47;;
71423;SDS011;59240;51.370;-0.486;2023-08-30T03:12:16;3.75;;;2.88;;
71423;SDS011;59240;51.370;-0.486;2023-08-30T03:17:13;8.02;;;3.08;;
71423;SDS011;59240;51.370;-0.486;2023-08-30T03:22:10;6.10;;;2.75;;
71423;SDS011;59240;51.370;-0.486;2023-08-30T03:27:07;3.50;;;2.40;;
71423;SDS011;59240;51.370;-0.486;2023-08-30T03:32:03;4.32;;;2.88;;
71423;SDS011;59240;51.370;-0.486;2023-08-30T03:37:01;8.32;;;2.65;;
71423;SDS011;59240;51.370;-0.486;2023-08-30T03:41:57;4.95;;;2.90;;
71423;SDS011;59240;51.370;-0.486;2023-08-30T03:46:54;6.20;;;2.75;;
71423;SDS011;59240;51.370;-0.486;2023-08-30T03:51:53;5.05;;;2.80;;
71423;SDS011;59240;51.370;-0.486;2023-08-30T03:56:50;7.90;;;2.78;;
71423;SDS011;59240;51.370;-0.486;2023-08-30T04:01:46;6.03;;;2.80;;
71423;SDS011;59240;51.370;-0.486;2023-08-30T04:06:43;4.57;;;2.65;;
71423;SDS011;59240;51.370;-0.486;2023-08-30T04:11:40;5.85;;;3.22;;
71423;SDS011;59240;51.370;-0.486;2023-08-30T04:16:38;5.43;;;2.95;;
71423;SDS011;59240;51.370;-0.486;2023-08-30T04:21:35;4.47;;;2.55;;
71423;SDS011;59240;51.370;-0.486;2023-08-30T04:26:32;6.70;;;2.63;;
71423;SDS011;59240;51.370;-0.486;2023-08-30T04:31:29;4.38;;;2.60;;
71423;SDS011;59240;51.370;-0.486;2023-08-30T04:36:26;7.22;;;2.40;;
71423;SDS011;59240;51.370;-0.486;2023-08-30T04:41:22;6.28;;;2.15;;
71423;SDS011;59240;51.370;-0.486;2023-08-30T04:46:19;5.40;;;2.25;;
71423;SDS011;59240;51.370;-0.486;2023-08-30T04:51:16;5.88;;;2.13;;
71423;SDS011;59240;51.370;-0.486;2023-08-30T04:56:13;6.65;;;2.20;;
71423;SDS011;59240;51.370;-0.486;2023-08-30T05:01:10;5.72;;;2.13;;
71423;SDS011;59240;51.370;-0.486;2023-08-30T05:06:09;2.90;;;1.80;;
71423;SDS011;59240;51.370;-0.486;2023-08-30T05:11:08;4.55;;;1.88;;
71423;SDS011;59240;51.370;-0.486;2023-08-30T05:16:05;4.95;;;1.90;;
71423;SDS011;59240;51.370;-0.486;2023-08-30T05:21:02;8.82;;;1.92;;
71423;SDS011;59240;51.370;-0.486;2023-08-30T05:26:00;6.10;;;1.70;;
71423;SDS011;59240;51.370;-0.486;2023-08-30T05:30:56;6.13;;;1.90;;
71423;SDS011;59240;51.370;-0.486;2023-08-30T05:35:53;4.43;;;1.55;;
71423;SDS011;59240;51.370;-0.486;2023-08-30T05:40:50;5.07;;;1.55;;
71423;SDS011;59240;51.370;-0.486;2023-08-30T05:45:47;6.28;;;1.98;;
71423;SDS011;59240;51.370;-0.486;2023-08-30T05:50:44;4.88;;;1.38;;
71423;SDS011;59240;51.370;-0.486;2023-08-30T05:55:42;10.80;;;3.00;;
71423;SDS011;59240;51.370;-0.486;2023-08-30T06:00:39;10.93;;;2.63;;
71423;SDS011;59240;51.370;-0.486;2023-08-30T06:05:36;6.57;;;2.08;;
71423;SDS011;59240;51.370;-0.486;2023-08-30T06:10:32;4.40;;;2.13;;
71423;SDS011;59240;51.370;-0.486;2023-08-30T06:15:29;5.40;;;1.83;;
71423;SDS011;59240;51.370;-0.486;2023-08-30T06:20:26;6.60;;;1.63;;
71423;SDS011;59240;51.370;-0.486;2023-08-30T06:25:23;7.05;;;1.70;;
71423;SDS011;59240;51.370;-0.486;2023-08-30T06:30:20;5.97;;;2.08;;
71423;SDS011;59240;51.370;-0.486;2023-08-30T06:35:17;6.70;;;2.15;;
71423;SDS011;59240;51.370;-0.486;2023-08-30T06:40:14;5.43;;;2.10;;
71423;SDS011;59240;51.370;-0.486;2023-08-30T06:45:11;5.25;;;1.95;;
71423;SDS011;59240;51.370;-0.486;2023-08-30T06:50:08;7.43;;;2.33;;
71423;SDS011;59240;51.370;-0.486;2023-08-30T06:55:06;4.80;;;1.80;;
71423;SDS011;59240;51.370;-0.486;2023-08-30T07:00:03;7.90;;;2.58;;
71423;SDS011;59240;51.370;-0.486;2023-08-30T07:05:09;7.07;;;1.95;;
71423;SDS011;59240;51.370;-0.486;2023-08-30T07:10:06;4.32;;;2.00;;
71423;SDS011;59240;51.370;-0.486;2023-08-30T07:15:03;5.03;;;1.85;;
71423;SDS011;59240;51.370;-0.486;2023-08-30T07:20:00;5.88;;;1.85;;
71423;SDS011;59240;51.370;-0.486;2023-08-30T07:24:57;9.85;;;2.08;;
71423;SDS011;59240;51.370;-0.486;2023-08-30T07:29:54;7.57;;;2.28;;
71423;SDS011;59240;51.370;-0.486;2023-08-30T07:34:51;7.35;;;2.30;;
71423;SDS011;59240;51.370;-0.486;2023-08-30T07:39:47;5.28;;;2.05;;
71423;SDS011;59240;51.370;-0.486;2023-08-30T07:44:45;8.77;;;2.88;;
71423;SDS011;59240;51.370;-0.486;2023-08-30T07:49:42;3.10;;;2.13;;
71423;SDS011;59240;51.370;-0.486;2023-08-30T07:54:39;10.45;;;2.03;;
71423;SDS011;59240;51.370;-0.486;2023-08-30T07:59:37;4.85;;;1.92;;
71423;SDS011;59240;51.370;-0.486;2023-08-30T08:04:34;9.63;;;2.22;;
71423;SDS011;59240;51.370;-0.486;2023-08-30T08:09:31;4.55;;;1.70;;
71423;SDS011;59240;51.370;-0.486;2023-08-30T08:14:28;5.35;;;1.40;;
71423;SDS011;59240;51.370;-0.486;2023-08-30T08:19:25;9.00;;;2.25;;
71423;SDS011;59240;51.370;-0.486;2023-08-30T08:24:22;6.68;;;1.45;;
71423;SDS011;59240;51.370;-0.486;2023-08-30T08:29:19;3.53;;;1.38;;
71423;SDS011;59240;51.370;-0.486;2023-08-30T08:34:16;3.03;;;1.17;;
71423;SDS011;59240;51.370;-0.486;2023-08-30T08:39:13;6.03;;;1.38;;
71423;SDS011;59240;51.370;-0.486;2023-08-30T08:44:11;7.10;;;1.60;;
71423;SDS011;59240;51.370;-0.486;2023-08-30T08:49:12;5.00;;;1.65;;
71423;SDS011;59240;51.370;-0.486;2023-08-30T08:54:11;5.30;;;1.60;;
71423;SDS011;59240;51.370;-0.486;2023-08-30T08:59:08;10.60;;;2.88;;
71423;SDS011;59240;51.370;-0.486;2023-08-30T09:04:06;5.57;;;1.30;;
71423;SDS011;59240;51.370;-0.486;2023-08-30T09:09:04;5.75;;;2.30;;
71423;SDS011;59240;51.370;-0.486;2023-08-30T09:14:01;7.75;;;2.10;;
71423;SDS011;59240;51.370;-0.486;2023-08-30T09:24:06;2.75;;;1.08;;
71423;SDS011;59240;51.370;-0.486;2023-08-30T09:29:04;7.63;;;1.67;;
71423;SDS011;59240;51.370;-0.486;2023-08-30T09:34:01;4.57;;;1.30;;
71423;SDS011;59240;51.370;-0.486;2023-08-30T09:38:58;6.65;;;1.38;;
71423;SDS011;59240;51.370;-0.486;2023-08-30T09:43:55;6.40;;;1.85;;
71423;SDS011;59240;51.370;-0.486;2023-08-30T09:49:09;3.35;;;1.17;;
71423;SDS011;59240;51.370;-0.486;2023-08-30T09:54:06;2.90;;;1.05;;
71423;SDS011;59240;51.370;-0.486;2023-08-30T09:59:27;5.57;;;1.15;;
71423;SDS011;59240;51.370;-0.486;2023-08-30T10:04:24;3.47;;;1.20;;
71423;SDS011;59240;51.370;-0.486;2023-08-30T10:09:23;3.33;;;0.90;;
71423;SDS011;59240;51.370;-0.486;2023-08-30T10:14:20;2.63;;;1.20;;
71423;SDS011;59240;51.370;-0.486;2023-08-30T10:19:26;3.92;;;0.90;;
71423;SDS011;59240;51.370;-0.486;2023-08-30T10:24:24;5.90;;;0.80;;
71423;SDS011;59240;51.370;-0.486;2023-08-30T10:29:35;2.45;;;0.70;;
71423;SDS011;59240;51.370;-0.486;2023-08-30T10:34:33;3.17;;;0.95;;
71423;SDS011;59240;51.370;-0.486;2023-08-30T10:39:37;3.35;;;0.70;;
71423;SDS011;59240;51.370;-0.486;2023-08-30T10:44:46;2.00;;;0.82;;
71423;SDS011;59240;51.370;-0.486;2023-08-30T10:50:07;5.55;;;0.80;;
71423;SDS011;59240;51.370;-0.486;2023-08-30T11:00:19;2.22;;;0.70;;
71423;SDS011;59240;51.370;-0.486;2023-08-30T11:05:20;2.20;;;0.65;;
71423;SDS011;59240;51.370;-0.486;2023-08-30T11:10:19;3.47;;;0.90;;
71423;SDS011;59240;51.370;-0.486;2023-08-30T11:15:17;4.13;;;0.98;;
71423;SDS011;59240;51.370;-0.486;2023-08-30T11:20:15;2.90;;;0.93;;
71423;SDS011;59240;51.370;-0.486;2023-08-30T11:25:17;1.45;;;0.68;;
71423;SDS011;59240;51.370;-0.486;2023-08-30T11:30:14;4.43;;;1.17;;
71423;SDS011;59240;51.370;-0.486;2023-08-30T11:35:11;2.25;;;0.93;;
71423;SDS011;59240;51.370;-0.486;2023-08-30T11:40:08;1.60;;;0.80;;
71423;SDS011;59240;51.370;-0.486;2023-08-30T11:45:08;2.05;;;0.75;;
71423;SDS011;59240;51.370;-0.486;2023-08-30T11:50:05;4.22;;;0.80;;
71423;SDS011;59240;51.370;-0.486;2023-08-30T11:55:06;1.42;;;0.60;;
71423;SDS011;59240;51.370;-0.486;2023-08-30T12:00:08;3.85;;;0.98;;
71423;SDS011;59240;51.370;-0.486;2023-08-30T12:05:10;2.58;;;0.82;;
71423;SDS011;59240;51.370;-0.486;2023-08-30T12:10:08;3.70;;;0.82;;
71423;SDS011;59240;51.370;-0.486;2023-08-30T12:15:09;1.65;;;0.63;;
71423;SDS011;59240;51.370;-0.486;2023-08-30T12:20:17;2.20;;;0.73;;
71423;SDS011;59240;51.370;-0.486;2023-08-30T12:25:18;3.40;;;0.70;;
71423;SDS011;59240;51.370;-0.486;2023-08-30T12:30:16;4.75;;;0.80;;
71423;SDS011;59240;51.370;-0.486;2023-08-30T12:35:13;1.95;;;1.00;;
71423;SDS011;59240;51.370;-0.486;2023-08-30T12:40:10;1.77;;;0.88;;
71423;SDS011;59240;51.370;-0.486;2023-08-30T12:45:07;1.90;;;0.75;;
71423;SDS011;59240;51.370;-0.486;2023-08-30T12:50:05;3.88;;;0.60;;
71423;SDS011;59240;51.370;-0.486;2023-08-30T12:55:02;2.63;;;0.80;;
71423;SDS011;59240;51.370;-0.486;2023-08-30T13:00:00;0.95;;;0.47;;
71423;SDS011;59240;51.370;-0.486;2023-08-30T13:04:57;2.83;;;0.77;;
71423;SDS011;59240;51.370;-0.486;2023-08-30T13:09:54;2.55;;;0.77;;
71423;SDS011;59240;51.370;-0.486;2023-08-30T13:14:51;3.00;;;1.15;;
71423;SDS011;59240;51.370;-0.486;2023-08-30T13:19:48;2.42;;;0.73;;
71423;SDS011;59240;51.370;-0.486;2023-08-30T13:24:45;4.70;;;0.93;;
71423;SDS011;59240;51.370;-0.486;2023-08-30T13:29:44;1.80;;;0.80;;
71423;SDS011;59240;51.370;-0.486;2023-08-30T13:34:41;2.88;;;0.80;;
71423;SDS011;59240;51.370;-0.486;2023-08-30T13:39:42;1.13;;;0.52;;
71423;SDS011;59240;51.370;-0.486;2023-08-30T13:44:39;3.17;;;0.65;;
71423;SDS011;59240;51.370;-0.486;2023-08-30T13:49:38;1.90;;;0.77;;
71423;SDS011;59240;51.370;-0.486;2023-08-30T13:54:34;2.53;;;1.17;;
71423;SDS011;59240;51.370;-0.486;2023-08-30T13:59:31;3.05;;;0.93;;
71423;SDS011;59240;51.370;-0.486;2023-08-30T14:04:28;3.00;;;0.93;;
71423;SDS011;59240;51.370;-0.486;2023-08-30T14:09:25;2.92;;;0.80;;
71423;SDS011;59240;51.370;-0.486;2023-08-30T14:14:22;3.40;;;0.60;;
71423;SDS011;59240;51.370;-0.486;2023-08-30T14:19:19;1.10;;;0.50;;
71423;SDS011;59240;51.370;-0.486;2023-08-30T14:24:16;3.97;;;1.13;;
71423;SDS011;59240;51.370;-0.486;2023-08-30T14:29:12;1.25;;;0.60;;
71423;SDS011;59240;51.370;-0.486;2023-08-30T14:34:09;2.45;;;0.77;;
71423;SDS011;59240;51.370;-0.486;2023-08-30T14:39:06;3.67;;;1.00;;
71423;SDS011;59240;51.370;-0.486;2023-08-30T14:44:03;2.88;;;0.70;;
71423;SDS011;59240;51.370;-0.486;2023-08-30T14:49:00;1.50;;;0.65;;
71423;SDS011;59240;51.370;-0.486;2023-08-30T14:53:57;2.03;;;1.05;;
71423;SDS011;59240;51.370;-0.486;2023-08-30T14:58:54;1.95;;;0.63;;
71423;SDS011;59240;51.370;-0.486;2023-08-30T15:03:51;1.98;;;0.80;;
71423;SDS011;59240;51.370;-0.486;2023-08-30T15:08:48;1.98;;;0.63;;
71423;SDS011;59240;51.370;-0.486;2023-08-30T15:13:44;1.50;;;0.80;;
71423;SDS011;59240;51.370;-0.486;2023-08-30T15:18:41;2.50;;;0.98;;
71423;SDS011;59240;51.370;-0.486;2023-08-30T15:23:38;2.88;;;0.82;;
71423;SDS011;59240;51.370;-0.486;2023-08-30T15:28:35;2.50;;;1.10;;
71423;SDS011;59240;51.370;-0.486;2023-08-30T15:33:32;2.17;;;0.70;;
71423;SDS011;59240;51.370;-0.486;2023-08-30T15:38:29;2.05;;;0.73;;
71423;SDS011;59240;51.370;-0.486;2023-08-30T15:43:25;1.70;;;0.95;;
71423;SDS011;59240;51.370;-0.486;2023-08-30T15:48:22;1.92;;;0.95;;
71423;SDS011;59240;51.370;-0.486;2023-08-30T15:53:19;1.77;;;0.70;;
71423;SDS011;59240;51.370;-0.486;2023-08-30T15:58:16;2.53;;;1.00;;
71423;SDS011;59240;51.370;-0.486;2023-08-30T16:03:13;1.92;;;0.75;;
71423;SDS011;59240;51.370;-0.486;2023-08-30T16:08:11;3.17;;;1.00;;
71423;SDS011;59240;51.370;-0.486;2023-08-30T16:13:08;2.83;;;0.95;;
71423;SDS011;59240;51.370;-0.486;2023-08-30T16:18:05;3.60;;;1.10;;
71423;SDS011;59240;51.370;-0.486;2023-08-30T16:23:02;1.95;;;0.85;;
71423;SDS011;59240;51.370;-0.486;2023-08-30T16:27:59;1.63;;;0.73;;
71423;SDS011;59240;51.370;-0.486;2023-08-30T16:32:56;2.38;;;1.30;;
71423;SDS011;59240;51.370;-0.486;2023-08-30T16:37:53;3.95;;;1.33;;
71423;SDS011;59240;51.370;-0.486;2023-08-30T16:42:50;2.35;;;1.00;;
71423;SDS011;59240;51.370;-0.486;2023-08-30T16:47:47;4.03;;;1.10;;
71423;SDS011;59240;51.370;-0.486;2023-08-30T16:52:47;2.20;;;1.30;;
71423;SDS011;59240;51.370;-0.486;2023-08-30T16:57:44;3.65;;;1.55;;
71423;SDS011;59240;51.370;-0.486;2023-08-30T17:02:41;3.22;;;1.20;;
71423;SDS011;59240;51.370;-0.486;2023-08-30T17:07:38;3.33;;;1.02;;
71423;SDS011;59240;51.370;-0.486;2023-08-30T17:12:34;3.72;;;1.33;;
71423;SDS011;59240;51.370;-0.486;2023-08-30T17:17:31;3.92;;;1.75;;
71423;SDS011;59240;51.370;-0.486;2023-08-30T17:22:28;4.53;;;2.00;;
71423;SDS011;59240;51.370;-0.486;2023-08-30T17:27:25;4.85;;;2.50;;
71423;SDS011;59240;51.370;-0.486;2023-08-30T17:32:22;4.20;;;1.80;;
71423;SDS011;59240;51.370;-0.486;2023-08-30T17:37:20;10.05;;;2.85;;
71423;SDS011;59240;51.370;-0.486;2023-08-30T17:42:16;7.03;;;2.78;;
71423;SDS011;59240;51.370;-0.486;2023-08-30T17:47:13;5.13;;;3.30;;
71423;SDS011;59240;51.370;-0.486;2023-08-30T17:52:10;4.65;;;1.58;;
71423;SDS011;59240;51.370;-0.486;2023-08-30T17:57:07;1.52;;;0.80;;
71423;SDS011;59240;51.370;-0.486;2023-08-30T18:02:05;3.78;;;1.20;;
71423;SDS011;59240;51.370;-0.486;2023-08-30T18:07:02;5.88;;;1.25;;
71423;SDS011;59240;51.370;-0.486;2023-08-30T18:11:59;3.50;;;1.30;;
71423;SDS011;59240;51.370;-0.486;2023-08-30T18:17:00;3.80;;;1.92;;
71423;SDS011;59240;51.370;-0.486;2023-08-30T18:21:57;3.63;;;1.40;;
71423;SDS011;59240;51.370;-0.486;2023-08-30T18:26:53;3.47;;;1.35;;
71423;SDS011;59240;51.370;-0.486;2023-08-30T18:31:51;2.55;;;1.52;;
71423;SDS011;59240;51.370;-0.486;2023-08-30T18:36:48;2.88;;;1.60;;
71423;SDS011;59240;51.370;-0.486;2023-08-30T18:41:45;4.28;;;2.63;;
71423;SDS011;59240;51.370;-0.486;2023-08-30T18:46:42;4.97;;;1.60;;
71423;SDS011;59240;51.370;-0.486;2023-08-30T18:51:39;6.57;;;2.40;;
71423;SDS011;59240;51.370;-0.486;2023-08-30T18:56:36;4.93;;;1.67;;
71423;SDS011;59240;51.370;-0.486;2023-08-30T19:01:34;2.50;;;1.42;;
71423;SDS011;59240;51.370;-0.486;2023-08-30T19:06:31;6.05;;;2.97;;
71423;SDS011;59240;51.370;-0.486;2023-08-30T19:11:28;5.40;;;2.20;;
71423;SDS011;59240;51.370;-0.486;2023-08-30T19:16:24;4.72;;;1.63;;
71423;SDS011;59240;51.370;-0.486;2023-08-30T19:21:21;5.43;;;2.00;;
71423;SDS011;59240;51.370;-0.486;2023-08-30T19:26:18;6.65;;;1.90;;
71423;SDS011;59240;51.370;-0.486;2023-08-30T19:31:15;7.97;;;3.85;;
71423;SDS011;59240;51.370;-0.486;2023-08-30T19:36:12;7.50;;;2.60;;
71423;SDS011;59240;51.370;-0.486;2023-08-30T19:41:14;7.38;;;3.03;;
71423;SDS011;59240;51.370;-0.486;2023-08-30T19:46:11;10.13;;;3.13;;
71423;SDS011;59240;51.370;-0.486;2023-08-30T19:51:09;8.13;;;3.13;;
71423;SDS011;59240;51.370;-0.486;2023-08-30T19:56:06;3.38;;;1.75;;
71423;SDS011;59240;51.370;-0.486;2023-08-30T20:01:04;4.05;;;1.88;;
71423;SDS011;59240;51.370;-0.486;2023-08-30T20:06:02;3.47;;;1.45;;
71423;SDS011;59240;51.370;-0.486;2023-08-30T20:11:00;3.15;;;1.20;;
71423;SDS011;59240;51.370;-0.486;2023-08-30T20:16:00;5.03;;;1.70;;
71423;SDS011;59240;51.370;-0.486;2023-08-30T20:20:59;3.10;;;1.38;;
71423;SDS011;59240;51.370;-0.486;2023-08-30T20:25:56;4.82;;;1.60;;
71423;SDS011;59240;51.370;-0.486;2023-08-30T20:30:54;3.65;;;1.75;;
71423;SDS011;59240;51.370;-0.486;2023-08-30T20:35:51;2.53;;;1.60;;
71423;SDS011;59240;51.370;-0.486;2023-08-30T20:40:47;3.33;;;1.30;;
71423;SDS011;59240;51.370;-0.486;2023-08-30T20:45:44;4.13;;;1.60;;
71423;SDS011;59240;51.370;-0.486;2023-08-30T20:50:41;5.22;;;2.17;;
71423;SDS011;59240;51.370;-0.486;2023-08-30T20:55:41;4.63;;;1.48;;
71423;SDS011;59240;51.370;-0.486;2023-08-30T21:00:39;4.28;;;1.80;;
71423;SDS011;59240;51.370;-0.486;2023-08-30T21:05:36;3.78;;;2.00;;
71423;SDS011;59240;51.370;-0.486;2023-08-30T21:10:33;6.90;;;1.92;;
71423;SDS011;59240;51.370;-0.486;2023-08-30T21:15:30;5.75;;;2.00;;
71423;SDS011;59240;51.370;-0.486;2023-08-30T21:20:27;6.15;;;2.00;;
71423;SDS011;59240;51.370;-0.486;2023-08-30T21:25:24;4.78;;;2.40;;
71423;SDS011;59240;51.370;-0.486;2023-08-30T21:30:30;7.30;;;2.45;;
71423;SDS011;59240;51.370;-0.486;2023-08-30T21:35:27;8.57;;;2.15;;
71423;SDS011;59240;51.370;-0.486;2023-08-30T21:40:25;4.78;;;2.10;;
71423;SDS011;59240;51.370;-0.486;2023-08-30T21:45:21;4.75;;;2.15;;
71423;SDS011;59240;51.370;-0.486;2023-08-30T21:50:18;4.05;;;2.30;;
71423;SDS011;59240;51.370;-0.486;2023-08-30T21:55:15;3.90;;;2.00;;
71423;SDS011;59240;51.370;-0.486;2023-08-30T22:00:14;6.05;;;2.05;;
71423;SDS011;59240;51.370;-0.486;2023-08-30T22:05:14;3.30;;;1.83;;
71423;SDS011;59240;51.370;-0.486;2023-08-30T22:10:12;6.90;;;1.98;;
71423;SDS011;59240;51.370;-0.486;2023-08-30T22:15:10;6.00;;;1.90;;
71423;SDS011;59240;51.370;-0.486;2023-08-30T22:20:08;4.95;;;1.88;;
71423;SDS011;59240;51.370;-0.486;2023-08-30T22:25:07;3.38;;;1.75;;
71423;SDS011;59240;51.370;-0.486;2023-08-30T22:30:08;7.38;;;2.05;;
71423;SDS011;59240;51.370;-0.486;2023-08-30T22:35:07;3.67;;;1.80;;
71423;SDS011;59240;51.370;-0.486;2023-08-30T22:40:06;9.13;;;2.42;;
71423;SDS011;59240;51.370;-0.486;2023-08-30T22:45:05;3.58;;;2.00;;
71423;SDS011;59240;51.370;-0.486;2023-08-30T22:50:04;8.35;;;2.10;;
71423;SDS011;59240;51.370;-0.486;2023-08-30T22:55:01;6.60;;;2.17;;
71423;SDS011;59240;51.370;-0.486;2023-08-30T23:00:00;5.88;;;2.20;;
71423;SDS011;59240;51.370;-0.486;2023-08-30T23:05:05;6.85;;;2.63;;
71423;SDS011;59240;51.370;-0.486;2023-08-30T23:10:03;6.00;;;2.13;;
71423;SDS011;59240;51.370;-0.486;2023-08-30T23:15:00;6.20;;;2.50;;
71423;SDS011;59240;51.370;-0.486;2023-08-30T23:19:57;3.85;;;2.00;;
71423;SDS011;59240;51.370;-0.486;2023-08-30T23:24:54;4.47;;;2.90;;
71423;SDS011;59240;51.370;-0.486;2023-08-30T23:29:51;5.95;;;2.40;;
71423;SDS011;59240;51.370;-0.486;2023-08-30T23:34:48;3.70;;;2.25;;
71423;SDS011;59240;51.370;-0.486;2023-08-30T23:39:45;5.40;;;2.40;;
71423;SDS011;59240;51.370;-0.486;2023-08-30T23:44:42;3.80;;;2.00;;
71423;SDS011;59240;51.370;-0.486;2023-08-30T23:49:39;4.07;;;2.08;;
71423;SDS011;59240;51.370;-0.486;2023-08-30T23:54:36;6.43;;;2.30;;
71423;SDS011;59240;51.370;-0.486;2023-08-30T23:59:33;4.03;;;2.20;;
